sensor_id;sensor_type;location;lat;lon;timestamp;temperature;humidity
17994;DHT22;9122;48.406;9.984;2023-03-01T00:00:07;1.70;91.00
17994;DHT22;9122;48.406;9.984;2023-03-01T00:02:51;1.70;91.00
17994;DHT22;9122;48.406;9.984;2023-03-01T00:05:36;1.50;91.20
17994;DHT22;9122;48.406;9.984;2023-03-01T00:08:20;1.70;91.20
17994;DHT22;9122;48.406;9.984;2023-03-01T00:14:00;1.70;91.40
17994;DHT22;9122;48.406;9.984;2023-03-01T00:16:45;1.80;91.30
17994;DHT22;9122;48.406;9.984;2023-03-01T00:19:30;1.60;91.30
17994;DHT22;9122;48.406;9.984;2023-03-01T00:22:16;1.60;91.40
17994;DHT22;9122;48.406;9.984;2023-03-01T00:25:01;1.60;91.40
17994;DHT22;9122;48.406;9.984;2023-03-01T00:27:46;1.60;91.40
17994;DHT22;9122;48.406;9.984;2023-03-01T00:30:33;1.60;91.50
17994;DHT22;9122;48.406;9.984;2023-03-01T00:33:17;1.60;91.50
17994;DHT22;9122;48.406;9.984;2023-03-01T00:36:03;1.60;91.50
17994;DHT22;9122;48.406;9.984;2023-03-01T00:38:47;1.60;91.60
17994;DHT22;9122;48.406;9.984;2023-03-01T00:44:19;1.60;91.30
17994;DHT22;9122;48.406;9.984;2023-03-01T00:47:06;1.60;91.60
17994;DHT22;9122;48.406;9.984;2023-03-01T00:49:53;1.60;91.60
17994;DHT22;9122;48.406;9.984;2023-03-01T00:52:38;1.60;91.60
17994;DHT22;9122;48.406;9.984;2023-03-01T00:55:23;1.60;91.60
17994;DHT22;9122;48.406;9.984;2023-03-01T00:58:07;2.80;91.90
17994;DHT22;9122;48.406;9.984;2023-03-01T01:00:52;1.60;91.60
17994;DHT22;9122;48.406;9.984;2023-03-01T01:03:36;2.10;91.80
17994;DHT22;9122;48.406;9.984;2023-03-01T01:09:07;1.60;91.70
17994;DHT22;9122;48.406;9.984;2023-03-01T01:11:52;1.60;91.70
17994;DHT22;9122;48.406;9.984;2023-03-01T01:14:37;1.60;91.70
17994;DHT22;9122;48.406;9.984;2023-03-01T01:17:22;1.60;92.00
17994;DHT22;9122;48.406;9.984;2023-03-01T01:20:07;1.60;91.70
17994;DHT22;9122;48.406;9.984;2023-03-01T01:22:52;1.60;91.70
17994;DHT22;9122;48.406;9.984;2023-03-01T01:25:36;1.60;92.10
17994;DHT22;9122;48.406;9.984;2023-03-01T01:28:21;1.60;91.70
17994;DHT22;9122;48.406;9.984;2023-03-01T01:31:06;1.60;91.80
17994;DHT22;9122;48.406;9.984;2023-03-01T01:33:53;1.60;91.80
17994;DHT22;9122;48.406;9.984;2023-03-01T01:36:38;1.60;91.80
17994;DHT22;9122;48.406;9.984;2023-03-01T01:39:23;1.60;91.90
17994;DHT22;9122;48.406;9.984;2023-03-01T01:42:18;1.60;91.90
17994;DHT22;9122;48.406;9.984;2023-03-01T01:45:26;1.60;91.90
17994;DHT22;9122;48.406;9.984;2023-03-01T01:48:18;1.60;91.90
17994;DHT22;9122;48.406;9.984;2023-03-01T01:51:04;1.60;91.80
17994;DHT22;9122;48.406;9.984;2023-03-01T01:53:56;1.60;91.90
17994;DHT22;9122;48.406;9.984;2023-03-01T01:56:46;1.60;91.90
17994;DHT22;9122;48.406;9.984;2023-03-01T01:59:32;1.60;91.90
17994;DHT22;9122;48.406;9.984;2023-03-01T02:02:21;1.60;91.90
17994;DHT22;9122;48.406;9.984;2023-03-01T02:05:16;1.60;92.00
17994;DHT22;9122;48.406;9.984;2023-03-01T02:08:06;1.60;92.00
17994;DHT22;9122;48.406;9.984;2023-03-01T02:10:52;1.50;91.90
17994;DHT22;9122;48.406;9.984;2023-03-01T02:13:39;2.00;92.10
17994;DHT22;9122;48.406;9.984;2023-03-01T02:16:23;1.60;92.20
17994;DHT22;9122;48.406;9.984;2023-03-01T02:19:33;1.60;92.10
17994;DHT22;9122;48.406;9.984;2023-03-01T02:22:28;1.50;92.10
17994;DHT22;9122;48.406;9.984;2023-03-01T02:30:55;1.60;92.10
17994;DHT22;9122;48.406;9.984;2023-03-01T02:33:59;1.50;92.20
17994;DHT22;9122;48.406;9.984;2023-03-01T02:36:48;1.60;92.20
17994;DHT22;9122;48.406;9.984;2023-03-01T02:39:48;1.50;92.20
17994;DHT22;9122;48.406;9.984;2023-03-01T02:42:41;1.60;92.20
17994;DHT22;9122;48.406;9.984;2023-03-01T02:45:28;1.40;92.20
17994;DHT22;9122;48.406;9.984;2023-03-01T02:48:13;1.50;92.30
17994;DHT22;9122;48.406;9.984;2023-03-01T02:54:24;1.50;92.30
17994;DHT22;9122;48.406;9.984;2023-03-01T02:57:10;1.50;92.30
17994;DHT22;9122;48.406;9.984;2023-03-01T02:59:55;1.50;92.30
17994;DHT22;9122;48.406;9.984;2023-03-01T03:02:40;1.50;92.30
17994;DHT22;9122;48.406;9.984;2023-03-01T03:05:28;1.50;92.30
17994;DHT22;9122;48.406;9.984;2023-03-01T03:08:13;1.50;92.30
17994;DHT22;9122;48.406;9.984;2023-03-01T03:11:00;1.50;92.40
17994;DHT22;9122;48.406;9.984;2023-03-01T03:13:44;1.50;92.70
17994;DHT22;9122;48.406;9.984;2023-03-01T03:16:32;1.50;92.40
17994;DHT22;9122;48.406;9.984;2023-03-01T03:19:17;1.50;92.40
17994;DHT22;9122;48.406;9.984;2023-03-01T03:22:02;1.40;92.40
17994;DHT22;9122;48.406;9.984;2023-03-01T03:24:50;1.50;92.40
17994;DHT22;9122;48.406;9.984;2023-03-01T03:27:40;1.50;92.40
17994;DHT22;9122;48.406;9.984;2023-03-01T03:30:29;1.50;92.30
17994;DHT22;9122;48.406;9.984;2023-03-01T03:33:13;2.40;92.60
17994;DHT22;9122;48.406;9.984;2023-03-01T03:35:58;1.50;92.40
17994;DHT22;9122;48.406;9.984;2023-03-01T03:38:42;2.30;92.50
17994;DHT22;9122;48.406;9.984;2023-03-01T03:41:30;2.00;92.60
17994;DHT22;9122;48.406;9.984;2023-03-01T03:44:18;1.40;92.20
17994;DHT22;9122;48.406;9.984;2023-03-01T03:47:02;1.60;92.20
17994;DHT22;9122;48.406;9.984;2023-03-01T03:49:47;1.40;92.20
17994;DHT22;9122;48.406;9.984;2023-03-01T03:52:32;1.40;92.20
17994;DHT22;9122;48.406;9.984;2023-03-01T03:55:16;2.00;92.30
17994;DHT22;9122;48.406;9.984;2023-03-01T03:58:03;1.40;92.10
17994;DHT22;9122;48.406;9.984;2023-03-01T04:00:56;1.40;92.00
17994;DHT22;9122;48.406;9.984;2023-03-01T04:03:40;1.40;92.10
17994;DHT22;9122;48.406;9.984;2023-03-01T04:06:28;1.40;92.10
17994;DHT22;9122;48.406;9.984;2023-03-01T04:09:12;2.20;92.30
17994;DHT22;9122;48.406;9.984;2023-03-01T04:11:57;1.40;92.10
17994;DHT22;9122;48.406;9.984;2023-03-01T04:14:42;3.10;92.90
17994;DHT22;9122;48.406;9.984;2023-03-01T04:17:26;1.40;92.20
17994;DHT22;9122;48.406;9.984;2023-03-01T04:20:13;2.90;92.50
17994;DHT22;9122;48.406;9.984;2023-03-01T04:23:07;3.30;92.70
17994;DHT22;9122;48.406;9.984;2023-03-01T04:25:57;1.30;92.20
17994;DHT22;9122;48.406;9.984;2023-03-01T04:28:42;1.40;92.30
17994;DHT22;9122;48.406;9.984;2023-03-01T04:31:29;1.30;92.30
17994;DHT22;9122;48.406;9.984;2023-03-01T04:34:13;1.40;92.40
17994;DHT22;9122;48.406;9.984;2023-03-01T04:36:58;1.30;92.30
17994;DHT22;9122;48.406;9.984;2023-03-01T04:39:42;1.30;92.30
17994;DHT22;9122;48.406;9.984;2023-03-01T04:42:33;1.30;92.30
17994;DHT22;9122;48.406;9.984;2023-03-01T04:45:17;1.90;92.50
17994;DHT22;9122;48.406;9.984;2023-03-01T04:48:03;1.30;92.30
17994;DHT22;9122;48.406;9.984;2023-03-01T04:50:47;1.30;92.30
17994;DHT22;9122;48.406;9.984;2023-03-01T04:53:32;1.30;92.30
17994;DHT22;9122;48.406;9.984;2023-03-01T04:56:20;1.30;92.40
17994;DHT22;9122;48.406;9.984;2023-03-01T04:59:06;1.30;92.30
17994;DHT22;9122;48.406;9.984;2023-03-01T05:01:53;2.60;92.70
17994;DHT22;9122;48.406;9.984;2023-03-01T05:04:41;1.30;92.40
17994;DHT22;9122;48.406;9.984;2023-03-01T05:07:26;1.30;92.40
17994;DHT22;9122;48.406;9.984;2023-03-01T05:10:10;1.30;92.40
17994;DHT22;9122;48.406;9.984;2023-03-01T05:12:56;1.30;92.40
17994;DHT22;9122;48.406;9.984;2023-03-01T05:15:42;1.30;92.40
17994;DHT22;9122;48.406;9.984;2023-03-01T05:18:31;1.30;92.90
17994;DHT22;9122;48.406;9.984;2023-03-01T05:21:17;1.30;92.40
17994;DHT22;9122;48.406;9.984;2023-03-01T05:24:01;1.30;92.40
17994;DHT22;9122;48.406;9.984;2023-03-01T05:26:46;1.30;92.50
17994;DHT22;9122;48.406;9.984;2023-03-01T05:29:32;1.30;92.40
17994;DHT22;9122;48.406;9.984;2023-03-01T05:32:18;1.30;92.40
17994;DHT22;9122;48.406;9.984;2023-03-01T05:35:03;1.30;92.40
17994;DHT22;9122;48.406;9.984;2023-03-01T05:37:49;1.30;93.30
17994;DHT22;9122;48.406;9.984;2023-03-01T05:40:37;1.30;92.50
17994;DHT22;9122;48.406;9.984;2023-03-01T05:43:22;1.30;92.50
17994;DHT22;9122;48.406;9.984;2023-03-01T05:46:07;1.30;92.60
17994;DHT22;9122;48.406;9.984;2023-03-01T05:48:56;1.30;93.30
17994;DHT22;9122;48.406;9.984;2023-03-01T05:51:42;1.30;92.50
17994;DHT22;9122;48.406;9.984;2023-03-01T05:54:27;1.30;92.50
17994;DHT22;9122;48.406;9.984;2023-03-01T05:57:11;1.20;92.50
17994;DHT22;9122;48.406;9.984;2023-03-01T05:59:56;2.20;92.80
17994;DHT22;9122;48.406;9.984;2023-03-01T06:05:26;1.20;92.20
17994;DHT22;9122;48.406;9.984;2023-03-01T06:08:12;2.30;92.90
17994;DHT22;9122;48.406;9.984;2023-03-01T06:10:57;1.20;92.90
17994;DHT22;9122;48.406;9.984;2023-03-01T06:13:42;2.00;92.70
17994;DHT22;9122;48.406;9.984;2023-03-01T06:16:27;1.20;92.40
17994;DHT22;9122;48.406;9.984;2023-03-01T06:19:12;1.20;92.50
17994;DHT22;9122;48.406;9.984;2023-03-01T06:21:59;1.20;92.50
17994;DHT22;9122;48.406;9.984;2023-03-01T06:24:43;1.10;92.60
17994;DHT22;9122;48.406;9.984;2023-03-01T06:27:32;1.10;92.60
17994;DHT22;9122;48.406;9.984;2023-03-01T06:30:18;1.10;93.40
17994;DHT22;9122;48.406;9.984;2023-03-01T06:33:05;1.10;92.60
17994;DHT22;9122;48.406;9.984;2023-03-01T06:35:51;1.10;93.00
17994;DHT22;9122;48.406;9.984;2023-03-01T06:38:35;1.10;92.50
17994;DHT22;9122;48.406;9.984;2023-03-01T06:41:20;1.10;93.30
17994;DHT22;9122;48.406;9.984;2023-03-01T06:44:04;1.10;92.50
17994;DHT22;9122;48.406;9.984;2023-03-01T06:46:49;1.10;92.50
17994;DHT22;9122;48.406;9.984;2023-03-01T06:49:34;1.50;92.60
17994;DHT22;9122;48.406;9.984;2023-03-01T06:52:18;1.10;92.40
17994;DHT22;9122;48.406;9.984;2023-03-01T06:55:04;1.10;92.70
17994;DHT22;9122;48.406;9.984;2023-03-01T06:57:48;1.10;92.30
17994;DHT22;9122;48.406;9.984;2023-03-01T07:00:33;1.60;92.30
17994;DHT22;9122;48.406;9.984;2023-03-01T07:03:17;1.20;92.30
17994;DHT22;9122;48.406;9.984;2023-03-01T07:06:05;1.10;92.20
17994;DHT22;9122;48.406;9.984;2023-03-01T07:08:49;1.20;92.20
17994;DHT22;9122;48.406;9.984;2023-03-01T07:11:34;1.20;92.10
17994;DHT22;9122;48.406;9.984;2023-03-01T07:14:19;1.60;92.10
17994;DHT22;9122;48.406;9.984;2023-03-01T07:17:03;1.50;91.80
17994;DHT22;9122;48.406;9.984;2023-03-01T07:19:48;1.70;91.60
17994;DHT22;9122;48.406;9.984;2023-03-01T07:22:32;2.80;91.40
17994;DHT22;9122;48.406;9.984;2023-03-01T07:25:17;2.60;90.90
17994;DHT22;9122;48.406;9.984;2023-03-01T07:28:02;2.30;90.50
17994;DHT22;9122;48.406;9.984;2023-03-01T07:34:16;2.70;89.60
17994;DHT22;9122;48.406;9.984;2023-03-01T07:39:47;3.00;87.50
17994;DHT22;9122;48.406;9.984;2023-03-01T07:42:32;3.10;88.20
17994;DHT22;9122;48.406;9.984;2023-03-01T07:45:17;3.20;87.70
17994;DHT22;9122;48.406;9.984;2023-03-01T07:48:02;3.30;87.00
17994;DHT22;9122;48.406;9.984;2023-03-01T07:50:49;3.40;86.60
17994;DHT22;9122;48.406;9.984;2023-03-01T07:53:34;3.50;86.70
17994;DHT22;9122;48.406;9.984;2023-03-01T07:56:19;3.60;86.10
17994;DHT22;9122;48.406;9.984;2023-03-01T07:59:04;3.60;85.80
17994;DHT22;9122;48.406;9.984;2023-03-01T08:01:49;3.40;85.60
17994;DHT22;9122;48.406;9.984;2023-03-01T08:04:33;3.20;86.20
17994;DHT22;9122;48.406;9.984;2023-03-01T08:07:21;3.00;86.80
17994;DHT22;9122;48.406;9.984;2023-03-01T08:10:07;3.20;87.60
17994;DHT22;9122;48.406;9.984;2023-03-01T08:12:52;2.70;88.20
17994;DHT22;9122;48.406;9.984;2023-03-01T08:15:37;2.50;88.60
17994;DHT22;9122;48.406;9.984;2023-03-01T08:18:25;2.40;89.90
17994;DHT22;9122;48.406;9.984;2023-03-01T08:21:14;2.30;89.30
17994;DHT22;9122;48.406;9.984;2023-03-01T08:23:59;2.30;89.80
17994;DHT22;9122;48.406;9.984;2023-03-01T08:26:43;2.20;90.00
17994;DHT22;9122;48.406;9.984;2023-03-01T08:29:30;2.20;90.10
17994;DHT22;9122;48.406;9.984;2023-03-01T08:32:18;2.10;90.10
17994;DHT22;9122;48.406;9.984;2023-03-01T08:35:02;2.10;90.30
17994;DHT22;9122;48.406;9.984;2023-03-01T08:37:47;2.00;90.40
17994;DHT22;9122;48.406;9.984;2023-03-01T08:40:31;2.00;90.40
17994;DHT22;9122;48.406;9.984;2023-03-01T08:43:16;2.00;90.50
17994;DHT22;9122;48.406;9.984;2023-03-01T08:46:01;2.00;90.50
17994;DHT22;9122;48.406;9.984;2023-03-01T08:48:46;2.00;90.50
17994;DHT22;9122;48.406;9.984;2023-03-01T08:51:30;2.10;90.50
17994;DHT22;9122;48.406;9.984;2023-03-01T08:54:19;1.90;90.50
17994;DHT22;9122;48.406;9.984;2023-03-01T08:57:03;1.90;90.60
17994;DHT22;9122;48.406;9.984;2023-03-01T08:59:48;1.90;90.70
17994;DHT22;9122;48.406;9.984;2023-03-01T09:02:33;1.90;90.50
17994;DHT22;9122;48.406;9.984;2023-03-01T09:05:17;2.50;90.70
17994;DHT22;9122;48.406;9.984;2023-03-01T09:08:02;1.90;90.40
17994;DHT22;9122;48.406;9.984;2023-03-01T09:10:47;1.90;90.50
17994;DHT22;9122;48.406;9.984;2023-03-01T09:13:31;1.90;90.60
17994;DHT22;9122;48.406;9.984;2023-03-01T09:16:18;1.90;90.50
17994;DHT22;9122;48.406;9.984;2023-03-01T09:19:03;1.90;90.40
17994;DHT22;9122;48.406;9.984;2023-03-01T09:21:48;1.90;90.60
17994;DHT22;9122;48.406;9.984;2023-03-01T09:24:42;1.90;90.60
17994;DHT22;9122;48.406;9.984;2023-03-01T09:27:26;1.90;90.90
17994;DHT22;9122;48.406;9.984;2023-03-01T09:30:23;1.90;90.80
17994;DHT22;9122;48.406;9.984;2023-03-01T09:36:04;1.90;90.60
17994;DHT22;9122;48.406;9.984;2023-03-01T09:38:51;2.00;94.00
17994;DHT22;9122;48.406;9.984;2023-03-01T09:44:56;2.60;90.90
17994;DHT22;9122;48.406;9.984;2023-03-01T09:47:42;1.90;91.00
17994;DHT22;9122;48.406;9.984;2023-03-01T09:50:35;1.90;91.40
17994;DHT22;9122;48.406;9.984;2023-03-01T09:53:30;1.90;90.80
17994;DHT22;9122;48.406;9.984;2023-03-01T10:08:36;1.90;91.10
17994;DHT22;9122;48.406;9.984;2023-03-01T10:11:26;2.00;91.00
17994;DHT22;9122;48.406;9.984;2023-03-01T10:17:22;2.00;91.00
17994;DHT22;9122;48.406;9.984;2023-03-01T10:23:01;2.10;91.40
17994;DHT22;9122;48.406;9.984;2023-03-01T10:26:07;2.20;91.00
17994;DHT22;9122;48.406;9.984;2023-03-01T10:29:01;2.20;90.90
17994;DHT22;9122;48.406;9.984;2023-03-01T10:31:50;2.30;90.90
17994;DHT22;9122;48.406;9.984;2023-03-01T10:34:36;2.40;90.80
17994;DHT22;9122;48.406;9.984;2023-03-01T10:37:21;2.50;90.60
17994;DHT22;9122;48.406;9.984;2023-03-01T10:40:09;2.70;90.60
17994;DHT22;9122;48.406;9.984;2023-03-01T10:42:57;2.80;90.50
17994;DHT22;9122;48.406;9.984;2023-03-01T10:45:43;2.90;90.10
17994;DHT22;9122;48.406;9.984;2023-03-01T10:48:30;3.00;90.00
17994;DHT22;9122;48.406;9.984;2023-03-01T10:51:18;3.20;89.60
17994;DHT22;9122;48.406;9.984;2023-03-01T10:54:06;3.30;88.80
17994;DHT22;9122;48.406;9.984;2023-03-01T10:57:03;3.30;88.40
17994;DHT22;9122;48.406;9.984;2023-03-01T11:00:01;3.50;87.80
17994;DHT22;9122;48.406;9.984;2023-03-01T11:03:10;3.50;87.40
17994;DHT22;9122;48.406;9.984;2023-03-01T11:06:04;3.70;87.00
17994;DHT22;9122;48.406;9.984;2023-03-01T11:08:50;3.80;86.30
17994;DHT22;9122;48.406;9.984;2023-03-01T11:11:35;3.70;87.00
17994;DHT22;9122;48.406;9.984;2023-03-01T11:14:28;3.80;86.90
17994;DHT22;9122;48.406;9.984;2023-03-01T11:17:30;3.90;86.70
17994;DHT22;9122;48.406;9.984;2023-03-01T11:20:25;3.90;86.50
17994;DHT22;9122;48.406;9.984;2023-03-01T11:23:13;4.00;86.60
17994;DHT22;9122;48.406;9.984;2023-03-01T11:26:08;4.00;86.60
17994;DHT22;9122;48.406;9.984;2023-03-01T11:28:57;4.20;86.70
17994;DHT22;9122;48.406;9.984;2023-03-01T11:31:45;4.20;86.40
17994;DHT22;9122;48.406;9.984;2023-03-01T11:40:50;4.40;85.30
17994;DHT22;9122;48.406;9.984;2023-03-01T11:43:56;4.50;85.10
17994;DHT22;9122;48.406;9.984;2023-03-01T11:49:51;4.60;84.60
17994;DHT22;9122;48.406;9.984;2023-03-01T11:56:16;4.70;84.50
17994;DHT22;9122;48.406;9.984;2023-03-01T12:05:18;4.90;84.10
17994;DHT22;9122;48.406;9.984;2023-03-01T12:09:06;4.90;84.00
17994;DHT22;9122;48.406;9.984;2023-03-01T12:29:29;5.30;83.30
17994;DHT22;9122;48.406;9.984;2023-03-01T12:32:43;5.30;83.00
17994;DHT22;9122;48.406;9.984;2023-03-01T12:38:50;5.40;82.90
17994;DHT22;9122;48.406;9.984;2023-03-01T12:41:51;5.40;83.60
17994;DHT22;9122;48.406;9.984;2023-03-01T12:50:57;5.50;82.70
17994;DHT22;9122;48.406;9.984;2023-03-01T12:53:48;5.50;82.50
17994;DHT22;9122;48.406;9.984;2023-03-01T12:56:35;5.60;82.80
17994;DHT22;9122;48.406;9.984;2023-03-01T12:59:38;5.60;82.90
17994;DHT22;9122;48.406;9.984;2023-03-01T13:02:31;5.60;82.30
17994;DHT22;9122;48.406;9.984;2023-03-01T13:05:26;5.60;82.40
17994;DHT22;9122;48.406;9.984;2023-03-01T13:08:22;5.70;82.50
17994;DHT22;9122;48.406;9.984;2023-03-01T13:11:22;5.70;82.10
17994;DHT22;9122;48.406;9.984;2023-03-01T13:17:30;5.70;82.10
17994;DHT22;9122;48.406;9.984;2023-03-01T13:20:18;5.70;82.50
17994;DHT22;9122;48.406;9.984;2023-03-01T13:23:07;5.80;82.70
17994;DHT22;9122;48.406;9.984;2023-03-01T13:26:04;5.80;82.50
17994;DHT22;9122;48.406;9.984;2023-03-01T13:28:54;5.90;82.10
17994;DHT22;9122;48.406;9.984;2023-03-01T13:34:52;5.90;81.80
17994;DHT22;9122;48.406;9.984;2023-03-01T13:37:37;5.90;82.10
17994;DHT22;9122;48.406;9.984;2023-03-01T13:43:37;5.90;82.20
17994;DHT22;9122;48.406;9.984;2023-03-01T13:46:23;6.00;82.10
17994;DHT22;9122;48.406;9.984;2023-03-01T13:49:16;6.00;81.80
17994;DHT22;9122;48.406;9.984;2023-03-01T13:52:02;6.00;82.00
17994;DHT22;9122;48.406;9.984;2023-03-01T13:54:47;6.10;82.10
17994;DHT22;9122;48.406;9.984;2023-03-01T13:57:38;6.00;82.20
17994;DHT22;9122;48.406;9.984;2023-03-01T14:00:34;6.10;82.10
17994;DHT22;9122;48.406;9.984;2023-03-01T14:03:19;6.10;82.10
17994;DHT22;9122;48.406;9.984;2023-03-01T14:06:16;6.10;82.10
17994;DHT22;9122;48.406;9.984;2023-03-01T14:09:23;6.10;82.50
17994;DHT22;9122;48.406;9.984;2023-03-01T14:15:42;6.20;81.80
17994;DHT22;9122;48.406;9.984;2023-03-01T14:19:15;6.20;81.90
17994;DHT22;9122;48.406;9.984;2023-03-01T14:21:39;6.20;81.80
17994;DHT22;9122;48.406;9.984;2023-03-01T14:24:38;6.20;81.40
17994;DHT22;9122;48.406;9.984;2023-03-01T14:27:28;6.80;81.90
17994;DHT22;9122;48.406;9.984;2023-03-01T14:30:22;6.20;81.70
17994;DHT22;9122;48.406;9.984;2023-03-01T14:33:30;6.20;81.50
17994;DHT22;9122;48.406;9.984;2023-03-01T14:36:27;6.30;81.50
17994;DHT22;9122;48.406;9.984;2023-03-01T14:39:25;6.30;81.60
17994;DHT22;9122;48.406;9.984;2023-03-01T14:42:12;6.20;81.30
17994;DHT22;9122;48.406;9.984;2023-03-01T14:44:58;6.30;81.50
17994;DHT22;9122;48.406;9.984;2023-03-01T14:47:44;6.30;81.30
17994;DHT22;9122;48.406;9.984;2023-03-01T14:50:34;6.30;81.40
17994;DHT22;9122;48.406;9.984;2023-03-01T14:53:25;6.30;81.50
17994;DHT22;9122;48.406;9.984;2023-03-01T14:56:15;6.30;81.70
17994;DHT22;9122;48.406;9.984;2023-03-01T14:59:01;6.30;81.40
17994;DHT22;9122;48.406;9.984;2023-03-01T15:01:46;6.30;81.70
17994;DHT22;9122;48.406;9.984;2023-03-01T15:04:33;6.30;81.60
17994;DHT22;9122;48.406;9.984;2023-03-01T15:07:18;6.30;81.60
17994;DHT22;9122;48.406;9.984;2023-03-01T15:10:05;6.30;81.30
17994;DHT22;9122;48.406;9.984;2023-03-01T15:12:50;6.40;81.40
17994;DHT22;9122;48.406;9.984;2023-03-01T15:15:47;6.40;81.50
17994;DHT22;9122;48.406;9.984;2023-03-01T15:18:35;6.40;81.50
17994;DHT22;9122;48.406;9.984;2023-03-01T15:21:27;6.40;81.40
17994;DHT22;9122;48.406;9.984;2023-03-01T15:27:03;6.50;81.50
17994;DHT22;9122;48.406;9.984;2023-03-01T15:29:56;6.40;81.50
17994;DHT22;9122;48.406;9.984;2023-03-01T15:32:41;6.40;81.40
17994;DHT22;9122;48.406;9.984;2023-03-01T15:35:41;6.50;81.50
17994;DHT22;9122;48.406;9.984;2023-03-01T15:38:55;6.50;81.10
17994;DHT22;9122;48.406;9.984;2023-03-01T15:41:51;6.50;81.20
17994;DHT22;9122;48.406;9.984;2023-03-01T15:44:38;6.50;81.20
17994;DHT22;9122;48.406;9.984;2023-03-01T15:47:30;6.50;81.20
17994;DHT22;9122;48.406;9.984;2023-03-01T15:50:30;6.50;80.60
17994;DHT22;9122;48.406;9.984;2023-03-01T15:53:17;6.40;81.10
17994;DHT22;9122;48.406;9.984;2023-03-01T15:56:04;6.40;81.30
17994;DHT22;9122;48.406;9.984;2023-03-01T15:58:51;6.40;81.40
17994;DHT22;9122;48.406;9.984;2023-03-01T16:01:36;6.40;81.20
17994;DHT22;9122;48.406;9.984;2023-03-01T16:04:21;6.40;81.10
17994;DHT22;9122;48.406;9.984;2023-03-01T16:07:09;6.40;81.10
17994;DHT22;9122;48.406;9.984;2023-03-01T16:09:56;6.40;81.30
17994;DHT22;9122;48.406;9.984;2023-03-01T16:12:41;6.40;81.50
17994;DHT22;9122;48.406;9.984;2023-03-01T16:15:28;6.40;82.00
17994;DHT22;9122;48.406;9.984;2023-03-01T16:18:13;6.30;81.50
17994;DHT22;9122;48.406;9.984;2023-03-01T16:20:57;6.40;81.50
17994;DHT22;9122;48.406;9.984;2023-03-01T16:23:43;6.40;81.50
17994;DHT22;9122;48.406;9.984;2023-03-01T16:26:28;6.30;81.50
17994;DHT22;9122;48.406;9.984;2023-03-01T16:29:12;6.30;82.30
17994;DHT22;9122;48.406;9.984;2023-03-01T16:32:01;6.30;81.70
17994;DHT22;9122;48.406;9.984;2023-03-01T16:34:45;6.30;81.70
17994;DHT22;9122;48.406;9.984;2023-03-01T16:37:34;6.30;81.80
17994;DHT22;9122;48.406;9.984;2023-03-01T16:40:27;6.30;81.80
17994;DHT22;9122;48.406;9.984;2023-03-01T16:43:11;6.30;81.90
17994;DHT22;9122;48.406;9.984;2023-03-01T16:45:56;6.30;81.90
17994;DHT22;9122;48.406;9.984;2023-03-01T16:48:42;6.30;82.10
17994;DHT22;9122;48.406;9.984;2023-03-01T16:51:27;6.20;82.90
17994;DHT22;9122;48.406;9.984;2023-03-01T16:54:13;6.20;82.30
17994;DHT22;9122;48.406;9.984;2023-03-01T16:56:58;6.20;82.40
17994;DHT22;9122;48.406;9.984;2023-03-01T16:59:53;6.20;82.40
17994;DHT22;9122;48.406;9.984;2023-03-01T17:02:38;6.20;82.40
17994;DHT22;9122;48.406;9.984;2023-03-01T17:05:23;6.20;82.40
17994;DHT22;9122;48.406;9.984;2023-03-01T17:08:08;6.20;82.60
17994;DHT22;9122;48.406;9.984;2023-03-01T17:11:01;6.20;82.80
17994;DHT22;9122;48.406;9.984;2023-03-01T17:13:46;6.20;82.80
17994;DHT22;9122;48.406;9.984;2023-03-01T17:16:31;6.20;82.80
17994;DHT22;9122;48.406;9.984;2023-03-01T17:19:15;6.20;82.90
17994;DHT22;9122;48.406;9.984;2023-03-01T17:22:02;6.20;82.90
17994;DHT22;9122;48.406;9.984;2023-03-01T17:24:47;6.20;83.00
17994;DHT22;9122;48.406;9.984;2023-03-01T17:27:31;6.20;83.10
17994;DHT22;9122;48.406;9.984;2023-03-01T17:30:18;6.20;83.10
17994;DHT22;9122;48.406;9.984;2023-03-01T17:33:03;6.20;83.00
17994;DHT22;9122;48.406;9.984;2023-03-01T17:35:49;6.20;83.00
17994;DHT22;9122;48.406;9.984;2023-03-01T17:38:35;6.20;83.00
17994;DHT22;9122;48.406;9.984;2023-03-01T17:41:20;6.20;83.00
17994;DHT22;9122;48.406;9.984;2023-03-01T17:44:07;6.30;83.00
17994;DHT22;9122;48.406;9.984;2023-03-01T17:46:51;6.20;83.00
17994;DHT22;9122;48.406;9.984;2023-03-01T17:49:36;6.20;83.20
17994;DHT22;9122;48.406;9.984;2023-03-01T17:52:21;6.20;83.30
17994;DHT22;9122;48.406;9.984;2023-03-01T17:55:07;6.20;83.20
17994;DHT22;9122;48.406;9.984;2023-03-01T17:57:52;6.20;83.30
17994;DHT22;9122;48.406;9.984;2023-03-01T18:00:39;6.20;83.30
17994;DHT22;9122;48.406;9.984;2023-03-01T18:03:23;6.20;83.60
17994;DHT22;9122;48.406;9.984;2023-03-01T18:06:16;6.20;83.40
17994;DHT22;9122;48.406;9.984;2023-03-01T18:09:01;6.20;83.20
17994;DHT22;9122;48.406;9.984;2023-03-01T18:11:49;6.20;83.20
17994;DHT22;9122;48.406;9.984;2023-03-01T18:14:33;6.20;83.20
17994;DHT22;9122;48.406;9.984;2023-03-01T18:17:19;6.20;83.30
17994;DHT22;9122;48.406;9.984;2023-03-01T18:20:05;6.20;83.40
17994;DHT22;9122;48.406;9.984;2023-03-01T18:22:50;6.20;83.50
17994;DHT22;9122;48.406;9.984;2023-03-01T18:25:39;6.20;83.50
17994;DHT22;9122;48.406;9.984;2023-03-01T18:28:24;6.20;84.30
17994;DHT22;9122;48.406;9.984;2023-03-01T18:31:10;6.20;83.60
17994;DHT22;9122;48.406;9.984;2023-03-01T18:33:54;6.20;83.70
17994;DHT22;9122;48.406;9.984;2023-03-01T18:36:42;6.30;83.90
17994;DHT22;9122;48.406;9.984;2023-03-01T18:39:27;6.30;84.00
17994;DHT22;9122;48.406;9.984;2023-03-01T18:42:15;6.30;83.90
17994;DHT22;9122;48.406;9.984;2023-03-01T18:45:03;6.30;84.10
17994;DHT22;9122;48.406;9.984;2023-03-01T18:47:47;6.30;84.00
17994;DHT22;9122;48.406;9.984;2023-03-01T18:50:32;6.30;84.10
17994;DHT22;9122;48.406;9.984;2023-03-01T18:53:17;6.30;84.20
17994;DHT22;9122;48.406;9.984;2023-03-01T18:56:02;6.30;84.30
17994;DHT22;9122;48.406;9.984;2023-03-01T18:58:46;6.30;84.40
17994;DHT22;9122;48.406;9.984;2023-03-01T19:01:32;6.20;84.60
17994;DHT22;9122;48.406;9.984;2023-03-01T19:04:16;6.20;84.50
17994;DHT22;9122;48.406;9.984;2023-03-01T19:07:01;6.20;84.50
17994;DHT22;9122;48.406;9.984;2023-03-01T19:09:46;6.20;84.50
17994;DHT22;9122;48.406;9.984;2023-03-01T19:12:31;6.20;84.50
17994;DHT22;9122;48.406;9.984;2023-03-01T19:15:17;6.20;85.60
17994;DHT22;9122;48.406;9.984;2023-03-01T19:18:02;6.60;84.90
17994;DHT22;9122;48.406;9.984;2023-03-01T19:20:56;6.20;84.70
17994;DHT22;9122;48.406;9.984;2023-03-01T19:23:41;6.20;84.80
17994;DHT22;9122;48.406;9.984;2023-03-01T19:26:26;6.10;84.90
17994;DHT22;9122;48.406;9.984;2023-03-01T19:29:11;6.10;85.00
17994;DHT22;9122;48.406;9.984;2023-03-01T19:31:55;6.10;85.10
17994;DHT22;9122;48.406;9.984;2023-03-01T19:34:40;6.10;85.20
17994;DHT22;9122;48.406;9.984;2023-03-01T19:37:26;6.00;85.10
17994;DHT22;9122;48.406;9.984;2023-03-01T19:40:11;6.00;85.30
17994;DHT22;9122;48.406;9.984;2023-03-01T19:42:55;6.00;85.40
17994;DHT22;9122;48.406;9.984;2023-03-01T19:45:40;6.00;85.50
17994;DHT22;9122;48.406;9.984;2023-03-01T19:48:26;6.00;85.80
17994;DHT22;9122;48.406;9.984;2023-03-01T19:51:11;5.90;86.00
17994;DHT22;9122;48.406;9.984;2023-03-01T19:53:56;5.90;85.90
17994;DHT22;9122;48.406;9.984;2023-03-01T19:56:42;5.90;86.00
17994;DHT22;9122;48.406;9.984;2023-03-01T19:59:26;5.90;86.10
17994;DHT22;9122;48.406;9.984;2023-03-01T20:02:11;5.90;86.30
17994;DHT22;9122;48.406;9.984;2023-03-01T20:04:57;5.80;86.10
17994;DHT22;9122;48.406;9.984;2023-03-01T20:07:44;5.80;86.40